createdAt,value
2018-11-11T00:00:39.168Z,90.66
2018-11-11T00:01:39.198Z,90.66
2018-11-11T00:02:39.145Z,90.46
2018-11-11T00:03:39.142Z,90.66
2018-11-11T00:04:39.179Z,90.25
2018-11-11T00:05:39.110Z,90.36
2018-11-11T00:06:39.058Z,90.36
2018-11-11T00:07:39.090Z,90.77
2018-11-11T00:08:39.082Z,90.77
2018-11-11T00:09:39.116Z,90.36
2018-11-11T00:10:39.062Z,90.36
2018-11-11T00:11:39.051Z,90.36
2018-11-11T00:12:39.040Z,90.36
2018-11-11T00:13:39.027Z,90.50
2018-11-11T00:14:39.074Z,90.81
2018-11-11T00:15:38.956Z,91.93
2018-11-11T00:16:39.018Z,91.22
2018-11-11T00:17:38.985Z,90.91
2018-11-11T00:18:38.992Z,91.72
2018-11-11T00:19:38.978Z,91.22
2018-11-11T00:20:38.952Z,91.42
2018-11-11T00:21:39.020Z,91.31
2018-11-11T00:22:38.952Z,91.42
2018-11-11T00:23:38.925Z,91.72
2018-11-11T00:24:38.940Z,90.91
2018-11-11T00:25:38.892Z,91.11
2018-11-11T00:26:38.894Z,90.81
2018-11-11T00:27:38.877Z,91.66
2018-11-11T00:28:38.850Z,91.11
2018-11-11T00:29:38.891Z,91.31
2018-11-11T00:30:38.840Z,91.22
2018-11-11T00:31:38.828Z,91.11
2018-11-11T00:32:38.832Z,91.36
2018-11-11T00:33:38.805Z,91.22
2018-11-11T00:34:38.851Z,91.46
2018-11-11T00:35:38.752Z,91.62
2018-11-11T00:36:38.774Z,91.01
2018-11-11T00:37:38.776Z,91.31
2018-11-11T00:38:38.764Z,91.46
2018-11-11T00:39:38.959Z,91.46
2018-11-11T00:40:38.741Z,91.26
2018-11-11T00:41:38.722Z,91.26
2018-11-11T00:42:38.738Z,91.26
2018-11-11T00:43:38.712Z,90.95
2018-11-11T00:44:38.742Z,90.44
2018-11-11T00:45:38.677Z,90.55
2018-11-11T00:46:38.665Z,90.14
2018-11-11T00:47:38.633Z,90.03
2018-11-11T00:48:38.645Z,90.14
2018-11-11T00:49:38.690Z,89.63
2018-11-11T00:50:38.619Z,89.83
2018-11-11T00:51:38.649Z,89.83
2018-11-11T00:52:38.622Z,89.57
2018-11-11T00:53:38.592Z,89.67
2018-11-11T00:54:38.609Z,89.26
2018-11-11T00:55:38.569Z,89.47
2018-11-11T00:56:38.575Z,89.73
2018-11-11T00:57:38.531Z,89.16
2018-11-11T00:58:38.489Z,89.16
2018-11-11T00:59:38.483Z,89.16
2018-11-11T01:00:38.517Z,89.26
2018-11-11T01:01:38.544Z,89.47
2018-11-11T01:02:38.448Z,89.36
2018-11-11T01:03:38.489Z,88.96
2018-11-11T01:04:38.427Z,88.55
2018-11-11T01:05:38.459Z,88.14
2018-11-11T01:06:38.490Z,87.94
2018-11-11T01:07:38.448Z,87.84
2018-11-11T01:08:38.425Z,87.69
2018-11-11T01:09:38.418Z,87.43
2018-11-11T01:10:38.412Z,87.08
2018-11-11T01:11:38.430Z,87.38
2018-11-11T01:12:38.384Z,87.08
2018-11-11T01:13:38.402Z,87.73
2018-11-11T01:14:38.322Z,87.18
2018-11-11T01:15:38.348Z,87.73
2018-11-11T01:16:38.364Z,87.29
2018-11-11T01:17:38.281Z,87.49
2018-11-11T01:18:38.304Z,87.08
2018-11-11T01:19:38.301Z,86.57
2018-11-11T01:20:38.327Z,86.16
2018-11-11T01:21:38.281Z,86.30
2018-11-11T01:22:38.270Z,85.75
2018-11-11T01:23:38.293Z,86.57
2018-11-11T01:24:38.255Z,86.37
2018-11-11T01:25:38.243Z,85.86
2018-11-11T01:26:38.247Z,85.75
2018-11-11T01:27:38.217Z,85.96
2018-11-11T01:28:38.245Z,86.16
2018-11-11T01:29:38.236Z,85.96
2018-11-11T01:30:38.197Z,86.16
2018-11-11T01:31:38.185Z,86.16
2018-11-11T01:32:38.169Z,85.75
2018-11-11T01:33:38.112Z,85.45
2018-11-11T01:34:38.190Z,85.60
2018-11-11T01:35:38.126Z,86.10
2018-11-11T01:36:38.121Z,86.00
2018-11-11T01:37:38.065Z,85.96
2018-11-11T01:38:38.173Z,85.90
2018-11-11T01:39:38.135Z,86.21
2018-11-11T01:40:38.028Z,85.80
2018-11-11T01:41:38.024Z,86.21
2018-11-11T01:42:38.203Z,86.00
2018-11-11T01:43:38.045Z,86.00
2018-11-11T01:44:37.991Z,86.10
2018-11-11T01:45:37.974Z,86.10
2018-11-11T01:46:38.046Z,86.10
2018-11-11T01:47:38.032Z,86.21
2018-11-11T01:48:38.137Z,86.00
2018-11-11T01:49:38.011Z,86.30
2018-11-11T01:50:37.965Z,85.90
2018-11-11T01:51:37.961Z,86.30
2018-11-11T01:52:37.974Z,85.96
2018-11-11T01:53:37.925Z,85.55
2018-11-11T01:54:37.971Z,85.05
2018-11-11T01:55:37.913Z,86.27
2018-11-11T01:56:37.902Z,85.96
2018-11-11T01:57:37.905Z,85.86
2018-11-11T01:58:37.882Z,86.16
2018-11-11T01:59:37.902Z,85.96
2018-11-11T02:00:37.866Z,85.55
2018-11-11T02:01:37.874Z,85.35
2018-11-11T02:02:37.873Z,85.66
2018-11-11T02:03:37.829Z,85.55
2018-11-11T02:04:37.771Z,85.66
2018-11-11T02:05:37.819Z,85.25
2018-11-11T02:06:37.807Z,85.14
2018-11-11T02:07:37.774Z,85.25
2018-11-11T02:08:37.770Z,85.75
2018-11-11T02:09:37.830Z,85.66
2018-11-11T02:10:37.761Z,85.66
2018-11-11T02:11:37.736Z,85.66
2018-11-11T02:12:37.713Z,85.66
2018-11-11T02:13:37.719Z,85.55
2018-11-11T02:14:37.724Z,85.66
2018-11-11T02:15:37.701Z,85.45
2018-11-11T02:16:37.727Z,85.75
2018-11-11T02:17:37.679Z,85.25
2018-11-11T02:18:37.699Z,85.75
2018-11-11T02:19:37.660Z,85.05
2018-11-11T02:20:37.648Z,85.66
2018-11-11T02:21:37.640Z,85.75
2018-11-11T02:22:37.621Z,85.75
2018-11-11T02:23:37.601Z,86.06
2018-11-11T02:24:37.605Z,85.86
2018-11-11T02:25:37.592Z,85.66
2018-11-11T02:26:37.576Z,85.66
2018-11-11T02:27:37.587Z,85.25
2018-11-11T02:28:37.553Z,85.25
2018-11-11T02:29:37.545Z,85.55
2018-11-11T02:30:37.561Z,85.66
2018-11-11T02:31:37.532Z,85.75
2018-11-11T02:32:37.523Z,85.45
2018-11-11T02:33:37.503Z,85.35
2018-11-11T02:34:37.519Z,85.05
2018-11-11T02:35:37.479Z,84.43
2018-11-11T02:36:37.471Z,84.84
2018-11-11T02:37:37.504Z,84.74
2018-11-11T02:38:37.488Z,84.94
2018-11-11T02:39:37.385Z,85.00
2018-11-11T02:40:37.426Z,84.64
2018-11-11T02:41:37.433Z,84.94
2018-11-11T02:42:37.406Z,84.64
2018-11-11T02:43:37.436Z,84.94
2018-11-11T02:44:37.381Z,84.74
2018-11-11T02:45:37.333Z,84.84
2018-11-11T02:46:37.388Z,84.53
2018-11-11T02:47:37.321Z,84.23
2018-11-11T02:48:37.446Z,84.74
2018-11-11T02:49:37.323Z,84.59
2018-11-11T02:50:37.329Z,84.53
2018-11-11T02:51:37.311Z,84.43
2018-11-11T02:52:37.328Z,84.53
2018-11-11T02:53:37.279Z,84.43
2018-11-11T02:54:37.273Z,84.53
2018-11-11T02:55:37.254Z,84.43
2018-11-11T02:56:37.279Z,84.59
2018-11-11T02:57:37.241Z,84.50
2018-11-11T02:58:37.234Z,84.53
2018-11-11T02:59:37.205Z,84.70
2018-11-11T03:00:37.241Z,84.39
2018-11-11T03:01:37.147Z,84.19
2018-11-11T03:02:37.187Z,84.19
2018-11-11T03:03:37.228Z,83.98
2018-11-11T03:04:37.282Z,84.39
2018-11-11T03:05:37.160Z,84.23
2018-11-11T03:06:37.157Z,84.09
2018-11-11T03:07:37.178Z,83.37
2018-11-11T03:08:37.084Z,83.78
2018-11-11T03:09:37.142Z,84.09
2018-11-11T03:10:37.094Z,83.89
2018-11-11T03:11:37.094Z,83.89
2018-11-11T03:12:37.105Z,83.89
2018-11-11T03:13:37.060Z,83.68
2018-11-11T03:14:37.048Z,83.62
2018-11-11T03:15:37.040Z,84.03
2018-11-11T03:16:37.070Z,84.03
2018-11-11T03:17:37.027Z,83.92
2018-11-11T03:18:37.043Z,83.72
2018-11-11T03:19:36.999Z,83.92
2018-11-11T03:20:37.000Z,83.51
2018-11-11T03:21:36.980Z,83.92
2018-11-11T03:22:36.965Z,83.31
2018-11-11T03:23:36.990Z,84.12
2018-11-11T03:24:36.954Z,84.03
2018-11-11T03:25:36.912Z,83.62
2018-11-11T03:26:36.923Z,84.03
2018-11-11T03:27:36.915Z,83.42
2018-11-11T03:28:36.944Z,83.21
2018-11-11T03:29:36.846Z,83.31
2018-11-11T03:30:36.882Z,83.82
2018-11-11T03:31:36.837Z,83.51
2018-11-11T03:32:36.817Z,83.42
2018-11-11T03:33:36.877Z,83.72
2018-11-11T03:34:36.963Z,83.62
2018-11-11T03:35:36.860Z,84.12
2018-11-11T03:36:36.815Z,83.62
2018-11-11T03:37:36.805Z,83.82
2018-11-11T03:38:36.981Z,83.42
2018-11-11T03:39:36.787Z,83.72
2018-11-11T03:40:36.723Z,84.12
2018-11-11T03:41:36.753Z,84.12
2018-11-11T03:42:36.708Z,83.62
2018-11-11T03:43:36.743Z,83.72
2018-11-11T03:44:36.752Z,83.82
2018-11-11T03:45:36.728Z,83.82
2018-11-11T03:46:36.696Z,83.82
2018-11-11T03:47:36.643Z,83.72
2018-11-11T03:48:36.760Z,83.92
2018-11-11T03:49:36.699Z,83.92
2018-11-11T03:50:36.686Z,83.92
2018-11-11T03:51:36.649Z,84.17
2018-11-11T03:52:36.634Z,84.23
2018-11-11T03:53:36.629Z,83.96
2018-11-11T03:54:36.694Z,84.06
2018-11-11T03:55:36.601Z,84.17
2018-11-11T03:56:36.633Z,83.96
2018-11-11T03:57:36.581Z,84.27
2018-11-11T03:58:36.548Z,84.47
2018-11-11T03:59:36.587Z,84.27
2018-11-11T04:00:36.549Z,84.37
2018-11-11T04:01:36.572Z,84.47
2018-11-11T04:02:36.532Z,84.27
2018-11-11T04:03:36.522Z,84.88
2018-11-11T04:04:36.548Z,84.17
2018-11-11T04:05:36.494Z,84.98
2018-11-11T04:06:36.482Z,84.92
2018-11-11T04:07:36.487Z,84.98
2018-11-11T04:08:36.462Z,85.08
2018-11-11T04:09:36.477Z,84.98
2018-11-11T04:10:36.462Z,85.08
2018-11-11T04:11:36.442Z,84.88
2018-11-11T04:12:36.424Z,84.67
2018-11-11T04:13:36.423Z,84.67
2018-11-11T04:14:36.436Z,85.08
2018-11-11T04:15:36.393Z,85.19
2018-11-11T04:16:36.396Z,85.08
2018-11-11T04:17:36.370Z,85.19
2018-11-11T04:18:36.358Z,84.78
2018-11-11T04:19:36.371Z,85.08
2018-11-11T04:20:36.392Z,85.08
2018-11-11T04:21:36.349Z,85.02
2018-11-11T04:22:36.313Z,85.19
2018-11-11T04:23:36.323Z,84.51
2018-11-11T04:24:36.290Z,84.98
2018-11-11T04:25:36.312Z,84.67
2018-11-11T04:26:36.278Z,85.13
2018-11-11T04:27:36.260Z,84.98
2018-11-11T04:28:36.251Z,84.37
2018-11-11T04:29:36.233Z,84.37
2018-11-11T04:30:36.231Z,84.78
2018-11-11T04:31:36.220Z,84.58
2018-11-11T04:32:36.201Z,84.37
2018-11-11T04:33:36.213Z,84.47
2018-11-11T04:34:36.197Z,84.27
2018-11-11T04:35:36.206Z,84.27
2018-11-11T04:36:36.163Z,84.47
2018-11-11T04:37:36.218Z,84.37
2018-11-11T04:38:36.097Z,84.67
2018-11-11T04:39:36.140Z,84.47
2018-11-11T04:40:36.153Z,84.58
2018-11-11T04:41:36.100Z,83.96
2018-11-11T04:42:36.089Z,84.17
2018-11-11T04:43:36.099Z,84.17
2018-11-11T04:44:36.026Z,83.76
2018-11-11T04:45:36.057Z,83.65
2018-11-11T04:46:36.139Z,83.96
2018-11-11T04:47:36.017Z,83.96
2018-11-11T04:48:36.055Z,84.27
2018-11-11T04:49:36.020Z,83.76
2018-11-11T04:50:36.048Z,83.45
2018-11-11T04:51:35.998Z,83.65
2018-11-11T04:52:35.990Z,83.76
2018-11-11T04:53:35.975Z,83.65
2018-11-11T04:54:35.958Z,84.06
2018-11-11T04:55:35.984Z,83.76
2018-11-11T04:56:35.933Z,83.96
2018-11-11T04:57:35.879Z,83.96
2018-11-11T04:58:35.942Z,84.06
2018-11-11T04:59:35.909Z,83.76
2018-11-11T05:00:35.893Z,83.96
2018-11-11T05:01:35.962Z,83.96
2018-11-11T05:02:35.874Z,83.96
2018-11-11T05:03:35.862Z,83.62
2018-11-11T05:04:35.904Z,84.06
2018-11-11T05:05:35.839Z,83.96
2018-11-11T05:06:35.866Z,83.62
2018-11-11T05:07:35.818Z,83.62
2018-11-11T05:08:35.841Z,83.96
2018-11-11T05:09:35.805Z,83.96
2018-11-11T05:10:35.810Z,84.03
2018-11-11T05:11:35.778Z,84.12
2018-11-11T05:12:35.767Z,83.72
2018-11-11T05:13:35.738Z,83.51
2018-11-11T05:14:35.744Z,84.12
2018-11-11T05:15:35.771Z,84.03
2018-11-11T05:16:35.723Z,83.92
2018-11-11T05:17:35.707Z,83.92
2018-11-11T05:18:35.729Z,84.23
2018-11-11T05:19:35.690Z,83.31
2018-11-11T05:20:35.687Z,83.51
2018-11-11T05:21:35.664Z,83.82
2018-11-11T05:22:35.656Z,83.72
2018-11-11T05:23:35.672Z,83.45
2018-11-11T05:24:35.636Z,83.72
2018-11-11T05:25:35.628Z,83.51
2018-11-11T05:26:35.623Z,83.51
2018-11-11T05:27:35.599Z,83.31
2018-11-11T05:28:35.615Z,83.31
2018-11-11T05:29:35.528Z,83.72
2018-11-11T05:30:35.565Z,83.62
2018-11-11T05:31:35.558Z,83.51
2018-11-11T05:32:35.545Z,83.42
2018-11-11T05:33:35.561Z,83.21
2018-11-11T05:34:35.557Z,82.90
2018-11-11T05:35:35.543Z,82.84
2018-11-11T05:36:35.549Z,83.45
2018-11-11T05:37:35.489Z,83.72
2018-11-11T05:38:35.493Z,83.31
2018-11-11T05:39:35.470Z,83.42
2018-11-11T05:40:35.555Z,83.56
2018-11-11T05:41:35.448Z,83.04
2018-11-11T05:42:35.444Z,83.56
2018-11-11T05:43:35.424Z,83.56
2018-11-11T05:44:35.414Z,83.76
2018-11-11T05:45:35.443Z,83.65
2018-11-11T05:46:35.383Z,83.65
2018-11-11T05:47:35.385Z,83.96
2018-11-11T05:48:35.369Z,83.15
2018-11-11T05:49:35.358Z,83.65
2018-11-11T05:50:35.403Z,83.92
2018-11-11T05:51:35.306Z,83.15
2018-11-11T05:52:35.366Z,82.74
2018-11-11T05:53:35.315Z,83.65
2018-11-11T05:54:35.314Z,82.94
2018-11-11T05:55:35.326Z,82.50
2018-11-11T05:56:35.331Z,82.70
2018-11-11T05:57:35.283Z,82.29
2018-11-11T05:58:35.260Z,82.23
2018-11-11T05:59:35.255Z,82.03
2018-11-11T06:00:35.238Z,82.23
2018-11-11T06:01:35.256Z,82.13
2018-11-11T06:02:35.174Z,82.13
2018-11-11T06:03:35.235Z,81.82
2018-11-11T06:04:35.229Z,83.92
2018-11-11T06:05:35.183Z,81.58
2018-11-11T06:06:35.131Z,81.38
2018-11-11T06:07:35.180Z,81.17
2018-11-11T06:08:35.170Z,81.07
2018-11-11T06:09:35.168Z,80.87
2018-11-11T06:10:35.166Z,81.01
2018-11-11T06:11:35.125Z,80.70
2018-11-11T06:12:35.155Z,80.87
2018-11-11T06:13:35.103Z,80.97
2018-11-11T06:14:35.086Z,81.27
2018-11-11T06:15:35.081Z,81.31
2018-11-11T06:16:35.018Z,81.07
2018-11-11T06:17:35.090Z,81.31
2018-11-11T06:18:35.001Z,83.92
2018-11-11T06:19:35.072Z,81.17
2018-11-11T06:20:35.028Z,81.07
2018-11-11T06:21:35.009Z,80.77
2018-11-11T06:22:34.999Z,79.85
2018-11-11T06:23:34.986Z,79.34
2018-11-11T06:24:35.037Z,79.85
2018-11-11T06:25:34.925Z,79.64
2018-11-11T06:26:35.008Z,79.75
2018-11-11T06:27:34.992Z,79.24
2018-11-11T06:28:34.972Z,79.24
2018-11-11T06:29:34.926Z,79.95
2018-11-11T06:30:34.916Z,79.64
2018-11-11T06:31:34.905Z,79.54
2018-11-11T06:32:34.939Z,79.85
2018-11-11T06:33:35.081Z,79.75
2018-11-11T06:34:34.876Z,79.03
2018-11-11T06:35:34.822Z,79.34
2018-11-11T06:36:34.883Z,79.03
2018-11-11T06:37:34.831Z,79.14
2018-11-11T06:38:34.854Z,81.44
2018-11-11T06:39:34.962Z,79.71
2018-11-11T06:40:34.885Z,81.34
2018-11-11T06:41:34.797Z,79.30
2018-11-11T06:42:34.793Z,78.89
2018-11-11T06:43:34.831Z,79.10
2018-11-11T06:44:34.804Z,78.28
2018-11-11T06:45:34.727Z,79.00
2018-11-11T06:46:34.744Z,78.80
2018-11-11T06:47:34.728Z,79.10
2018-11-11T06:48:34.715Z,78.39
2018-11-11T06:49:34.816Z,79.10
2018-11-11T06:50:34.696Z,79.10
2018-11-11T06:51:34.682Z,80.83
2018-11-11T06:52:34.642Z,79.00
2018-11-11T06:53:34.687Z,79.30
2018-11-11T06:54:34.685Z,78.28
2018-11-11T06:55:34.749Z,80.93
2018-11-11T06:56:34.707Z,79.68
2018-11-11T06:57:34.671Z,79.10
2018-11-11T06:58:34.648Z,79.68
2018-11-11T06:59:34.596Z,79.37
2018-11-11T07:00:34.588Z,79.20
2018-11-11T07:01:34.573Z,78.86
2018-11-11T07:02:34.567Z,79.30
2018-11-11T07:03:34.587Z,78.39
2018-11-11T07:04:34.626Z,78.39
2018-11-11T07:05:34.528Z,78.28
2018-11-11T07:06:34.552Z,78.80
2018-11-11T07:07:34.582Z,78.19
2018-11-11T07:08:34.503Z,81.30
2018-11-11T07:09:34.529Z,78.96
2018-11-11T07:10:34.443Z,78.66
2018-11-11T07:11:34.462Z,78.25
2018-11-11T07:12:34.547Z,78.19
2018-11-11T07:13:34.447Z,78.25
2018-11-11T07:14:34.462Z,78.25
2018-11-11T07:15:34.422Z,78.55
2018-11-11T07:16:34.429Z,80.08
2018-11-11T07:17:34.616Z,78.55
2018-11-11T07:18:34.396Z,77.94
2018-11-11T07:19:34.333Z,77.13
2018-11-11T07:20:34.370Z,77.20
2018-11-11T07:21:34.375Z,77.13
2018-11-11T07:22:34.388Z,76.89
2018-11-11T07:23:34.368Z,76.79
2018-11-11T07:24:34.325Z,76.18
2018-11-11T07:25:34.311Z,77.03
2018-11-11T07:26:34.306Z,76.62
2018-11-11T07:27:34.331Z,76.72
2018-11-11T07:28:34.336Z,76.99
2018-11-11T07:29:34.270Z,77.20
2018-11-11T07:30:34.262Z,75.77
2018-11-11T07:31:34.235Z,75.16
2018-11-11T07:32:34.199Z,75.67
2018-11-11T07:33:34.284Z,75.98
2018-11-11T07:34:34.214Z,75.26
2018-11-11T07:35:34.205Z,75.16
2018-11-11T07:36:34.155Z,75.02
2018-11-11T07:37:34.195Z,75.46
2018-11-11T07:38:34.338Z,75.06
2018-11-11T07:39:34.190Z,76.89
2018-11-11T07:40:34.146Z,76.14
2018-11-11T07:41:34.144Z,76.55
2018-11-11T07:42:34.173Z,74.82
2018-11-11T07:43:34.117Z,75.23
2018-11-11T07:44:34.176Z,75.49
2018-11-11T07:45:34.053Z,76.72
2018-11-11T07:46:34.093Z,74.38
2018-11-11T07:47:34.078Z,74.88
2018-11-11T07:48:34.072Z,77.63
2018-11-11T07:49:34.097Z,75.70
2018-11-11T07:50:34.035Z,73.77
2018-11-11T07:51:34.043Z,73.87
2018-11-11T07:52:34.019Z,74.38
2018-11-11T07:53:34.006Z,73.67
2018-11-11T07:54:34.039Z,73.97
2018-11-11T07:55:33.988Z,74.18
2018-11-11T07:56:33.973Z,74.18
2018-11-11T07:57:33.966Z,78.14
2018-11-11T07:58:33.986Z,74.88
2018-11-11T07:59:33.985Z,73.43
2018-11-11T08:00:33.981Z,74.24
2018-11-11T08:01:33.995Z,77.19
2018-11-11T08:02:33.917Z,76.78
2018-11-11T08:03:33.896Z,74.44
2018-11-11T08:04:33.938Z,74.34
2018-11-11T08:05:33.833Z,74.14
2018-11-11T08:06:33.876Z,74.58
2018-11-11T08:07:33.862Z,74.58
2018-11-11T08:08:33.846Z,74.04
2018-11-11T08:09:33.860Z,74.04
2018-11-11T08:10:33.824Z,74.07
2018-11-11T08:11:33.800Z,74.75
2018-11-11T08:12:33.808Z,73.46
2018-11-11T08:13:33.814Z,75.76
2018-11-11T08:14:33.782Z,76.17
2018-11-11T08:15:33.801Z,74.85
2018-11-11T08:16:33.889Z,72.92
2018-11-11T08:17:33.761Z,72.62
2018-11-11T08:18:33.744Z,78.61
2018-11-11T08:19:33.726Z,74.04
2018-11-11T08:20:33.721Z,75.16
2018-11-11T08:21:33.742Z,74.71
2018-11-11T08:22:33.691Z,73.33
2018-11-11T08:23:33.725Z,73.63
2018-11-11T08:24:33.671Z,73.02
2018-11-11T08:25:33.774Z,73.13
2018-11-11T08:26:33.657Z,72.41
2018-11-11T08:27:33.642Z,73.13
2018-11-11T08:28:33.625Z,72.82
2018-11-11T08:29:33.569Z,74.95
2018-11-11T08:30:33.590Z,73.13
2018-11-11T08:31:33.592Z,77.39
2018-11-11T08:32:33.588Z,72.62
2018-11-11T08:33:33.534Z,73.94
2018-11-11T08:34:33.562Z,72.72
2018-11-11T08:35:33.569Z,72.41
2018-11-11T08:36:33.538Z,72.62
2018-11-11T08:37:33.596Z,72.31
2018-11-11T08:38:33.518Z,72.72
2018-11-11T08:39:33.521Z,73.94
2018-11-11T08:40:33.601Z,71.91
2018-11-11T08:41:33.446Z,73.53
2018-11-11T08:42:33.481Z,73.22
2018-11-11T08:43:33.469Z,71.91
2018-11-11T08:44:33.462Z,74.34
2018-11-11T08:45:33.559Z,71.91
2018-11-11T08:46:33.437Z,72.41
2018-11-11T08:47:33.429Z,75.76
2018-11-11T08:48:33.431Z,75.43
2018-11-11T08:49:33.396Z,72.48
2018-11-11T08:50:33.441Z,70.65
2018-11-11T08:51:33.337Z,75.09
2018-11-11T08:52:33.412Z,73.06
2018-11-11T08:53:33.360Z,70.42
2018-11-11T08:54:33.352Z,73.93
2018-11-11T08:55:33.342Z,72.72
2018-11-11T08:56:33.324Z,69.27
2018-11-11T08:57:33.337Z,68.29
2018-11-11T08:58:33.304Z,68.79
2018-11-11T08:59:33.295Z,69.34
2018-11-11T09:00:33.282Z,72.34
2018-11-11T09:01:33.268Z,69.30
2018-11-11T09:02:33.250Z,68.83
2018-11-11T09:03:33.247Z,71.47
2018-11-11T09:04:33.245Z,70.15
2018-11-11T09:05:33.239Z,74.82
2018-11-11T09:06:33.313Z,75.83
2018-11-11T09:07:33.167Z,70.72
2018-11-11T09:08:33.284Z,69.10
2018-11-11T09:09:33.185Z,77.01
2018-11-11T09:10:33.195Z,70.11
2018-11-11T09:11:33.273Z,67.78
2018-11-11T09:12:33.163Z,71.80
2018-11-11T09:13:33.201Z,68.79
2018-11-11T09:14:33.145Z,68.90
2018-11-11T09:15:33.089Z,75.79
2018-11-11T09:16:33.113Z,69.30
2018-11-11T09:17:33.207Z,73.66
2018-11-11T09:18:33.138Z,68.90
2018-11-11T09:19:33.078Z,69.30
2018-11-11T09:20:33.065Z,68.49
2018-11-11T09:21:33.133Z,67.68
2018-11-11T09:22:33.023Z,67.78
2018-11-11T09:23:33.063Z,70.92
2018-11-11T09:24:33.044Z,69.71
2018-11-11T09:25:33.018Z,68.90
2018-11-11T09:26:33.016Z,68.79
2018-11-11T09:27:32.943Z,68.79
2018-11-11T09:28:32.979Z,67.98
2018-11-11T09:29:33.027Z,68.19
2018-11-11T09:30:33.096Z,75.05
2018-11-11T09:31:32.953Z,69.27
2018-11-11T09:32:32.941Z,68.26
2018-11-11T09:33:32.960Z,68.43
2018-11-11T09:34:32.963Z,67.21
2018-11-11T09:35:32.912Z,68.73
2018-11-11T09:36:32.893Z,68.02
2018-11-11T09:37:32.884Z,67.51
2018-11-11T09:38:33.047Z,68.12
2018-11-11T09:39:32.861Z,67.61
2018-11-11T09:40:32.852Z,68.32
2018-11-11T09:41:32.878Z,66.91
2018-11-11T09:42:32.911Z,69.71
2018-11-11T09:43:32.817Z,73.86
2018-11-11T09:44:32.900Z,74.13
2018-11-11T09:45:32.795Z,75.92
2018-11-11T09:46:32.791Z,74.47
2018-11-11T09:47:32.780Z,68.19
2018-11-11T09:48:32.772Z,81.62
2018-11-11T09:49:32.789Z,65.94
2018-11-11T09:50:32.746Z,65.47
2018-11-11T09:51:32.796Z,69.10
2018-11-11T09:52:32.874Z,66.98
2018-11-11T09:53:32.730Z,64.96
2018-11-11T09:54:32.743Z,64.45
2018-11-11T09:55:32.698Z,65.26
2018-11-11T09:56:32.675Z,64.86
2018-11-11T09:57:32.678Z,64.89
2018-11-11T09:58:32.679Z,67.42
2018-11-11T09:59:32.692Z,66.30
2018-11-11T10:00:32.649Z,69.95
2018-11-11T10:01:32.650Z,65.59
2018-11-11T10:02:32.619Z,65.70
2018-11-11T10:03:32.619Z,65.59
2018-11-11T10:04:32.544Z,65.32
2018-11-11T10:05:32.596Z,68.97
2018-11-11T10:06:32.645Z,67.01
2018-11-11T10:07:32.557Z,69.24
2018-11-11T10:08:32.541Z,66.13
2018-11-11T10:09:32.532Z,67.05
2018-11-11T10:10:32.530Z,67.35
2018-11-11T10:11:32.544Z,70.89
2018-11-11T10:12:32.598Z,69.17
2018-11-11T10:13:32.486Z,68.23
2018-11-11T10:14:32.476Z,67.45
2018-11-11T10:15:32.474Z,65.93
2018-11-11T10:16:32.496Z,66.24
2018-11-11T10:17:32.445Z,75.55
2018-11-11T10:18:32.442Z,74.00
2018-11-11T10:19:32.422Z,70.56
2018-11-11T10:20:32.460Z,67.82
2018-11-11T10:21:32.432Z,69.14
2018-11-11T10:22:32.388Z,67.32
2018-11-11T10:23:32.388Z,66.30
2018-11-11T10:24:32.394Z,65.80
2018-11-11T10:25:32.375Z,65.80
2018-11-11T10:26:32.387Z,66.33
2018-11-11T10:27:32.467Z,66.13
2018-11-11T10:28:32.334Z,66.64
2018-11-11T10:29:32.401Z,67.89
2018-11-11T10:30:32.300Z,66.44
2018-11-11T10:31:32.305Z,67.76
2018-11-11T10:32:32.325Z,69.68
2018-11-11T10:33:32.276Z,67.89
2018-11-11T10:34:32.433Z,69.61
2018-11-11T10:35:32.212Z,72.52
2018-11-11T10:36:32.412Z,68.16
2018-11-11T10:37:32.360Z,67.38
2018-11-11T10:38:32.420Z,66.74
2018-11-11T10:39:32.219Z,68.70
2018-11-11T10:40:32.220Z,67.48
2018-11-11T10:41:32.141Z,69.00
2018-11-11T10:42:32.225Z,68.90
2018-11-11T10:43:32.241Z,70.83
2018-11-11T10:44:32.178Z,67.58
2018-11-11T10:45:32.143Z,67.25
2018-11-11T10:46:32.141Z,67.45
2018-11-11T10:47:32.218Z,66.97
2018-11-11T10:48:32.109Z,69.61
2018-11-11T10:49:32.092Z,67.48
2018-11-11T10:50:32.138Z,68.80
2018-11-11T10:51:32.093Z,68.60
2018-11-11T10:52:32.088Z,68.09
2018-11-11T10:53:32.061Z,67.68
2018-11-11T10:54:32.131Z,68.97
2018-11-11T10:55:32.040Z,68.09
2018-11-11T10:56:32.013Z,67.35
2018-11-11T10:57:32.013Z,67.58
2018-11-11T10:58:31.995Z,67.28
2018-11-11T10:59:32.046Z,67.35
2018-11-11T11:00:31.976Z,66.97
2018-11-11T11:01:31.965Z,66.74
2018-11-11T11:02:31.951Z,67.14
2018-11-11T11:03:31.941Z,67.58
2018-11-11T11:04:31.925Z,67.28
2018-11-11T11:05:31.922Z,71.84
2018-11-11T11:06:31.913Z,67.79
2018-11-11T11:07:31.925Z,68.66
2018-11-11T11:08:31.857Z,66.67
2018-11-11T11:09:31.838Z,66.97
2018-11-11T11:10:31.862Z,67.48
2018-11-11T11:11:31.870Z,68.77
2018-11-11T11:12:31.885Z,68.97
2018-11-11T11:13:31.979Z,67.89
2018-11-11T11:14:31.835Z,67.08
2018-11-11T11:15:31.820Z,67.58
2018-11-11T11:16:31.797Z,69.78
2018-11-11T11:17:31.819Z,68.06
2018-11-11T11:18:31.778Z,67.85
2018-11-11T11:19:31.767Z,67.96
2018-11-11T11:20:31.772Z,67.76
2018-11-11T11:21:31.743Z,72.11
2018-11-11T11:22:31.785Z,66.84
2018-11-11T11:23:31.719Z,66.33
2018-11-11T11:24:31.723Z,67.05
2018-11-11T11:25:31.727Z,68.16
2018-11-11T11:26:31.701Z,67.65
2018-11-11T11:27:31.722Z,66.74
2018-11-11T11:28:31.671Z,66.33
2018-11-11T11:29:31.664Z,66.54
2018-11-11T11:30:31.633Z,66.94
2018-11-11T11:31:31.699Z,66.24
2018-11-11T11:32:31.676Z,67.76
2018-11-11T11:33:31.616Z,66.64
2018-11-11T11:34:31.704Z,68.23
2018-11-11T11:35:31.605Z,67.55
2018-11-11T11:36:31.847Z,71.06
2018-11-11T11:37:31.527Z,66.20
2018-11-11T11:38:31.581Z,67.52
2018-11-11T11:39:31.592Z,65.70
2018-11-11T11:40:31.543Z,65.59
2018-11-11T11:41:31.634Z,65.39
2018-11-11T11:42:31.492Z,65.29
2018-11-11T11:43:31.525Z,65.59
2018-11-11T11:44:31.549Z,65.80
2018-11-11T11:45:31.489Z,65.59
2018-11-11T11:46:31.448Z,65.19
2018-11-11T11:47:31.537Z,65.59
2018-11-11T11:48:31.458Z,65.09
2018-11-11T11:49:31.422Z,64.79
2018-11-11T11:50:31.489Z,65.09
2018-11-11T11:51:31.450Z,65.19
2018-11-11T11:52:31.492Z,65.19
2018-11-11T11:53:31.390Z,64.89
2018-11-11T11:54:31.385Z,65.50
2018-11-11T11:55:31.332Z,65.39
2018-11-11T11:56:31.397Z,65.39
2018-11-11T11:57:31.358Z,64.89
2018-11-11T11:58:31.339Z,65.39
2018-11-11T11:59:31.341Z,65.29
2018-11-11T12:00:31.326Z,65.50
2018-11-11T12:01:31.340Z,66.00
2018-11-11T12:02:31.294Z,64.76
2018-11-11T12:03:31.292Z,65.16
2018-11-11T12:04:31.285Z,64.86
2018-11-11T12:05:31.275Z,65.09
2018-11-11T12:06:31.292Z,65.16
2018-11-11T12:07:31.236Z,65.16
2018-11-11T12:08:31.302Z,64.65
2018-11-11T12:09:31.216Z,64.55
2018-11-11T12:10:31.208Z,64.42
2018-11-11T12:11:31.234Z,63.92
2018-11-11T12:12:31.193Z,64.04
2018-11-11T12:13:31.184Z,64.25
2018-11-11T12:14:31.197Z,63.92
2018-11-11T12:15:31.148Z,64.02
2018-11-11T12:16:31.154Z,63.61
2018-11-11T12:17:31.135Z,63.71
2018-11-11T12:18:31.117Z,63.31
2018-11-11T12:19:31.149Z,63.21
2018-11-11T12:20:31.099Z,63.10
2018-11-11T12:21:31.087Z,63.21
2018-11-11T12:22:31.070Z,62.90
2018-11-11T12:23:31.068Z,63.21
2018-11-11T12:24:31.109Z,63.21
2018-11-11T12:25:31.041Z,63.51
2018-11-11T12:26:31.039Z,62.90
2018-11-11T12:27:31.019Z,63.41
2018-11-11T12:28:31.014Z,64.83
2018-11-11T12:29:31.058Z,63.51
2018-11-11T12:30:31.056Z,63.81
2018-11-11T12:31:30.981Z,64.73
2018-11-11T12:32:30.966Z,63.13
2018-11-11T12:33:30.966Z,62.73
2018-11-11T12:34:30.949Z,63.84
2018-11-11T12:35:30.943Z,63.64
2018-11-11T12:36:30.957Z,63.13
2018-11-11T12:37:30.914Z,63.61
2018-11-11T12:38:30.907Z,63.44
2018-11-11T12:39:31.052Z,64.02
2018-11-11T12:40:30.909Z,63.75
2018-11-11T12:41:30.870Z,63.95
2018-11-11T12:42:30.861Z,65.56
2018-11-11T12:43:30.901Z,64.25
2018-11-11T12:44:30.932Z,64.04
2018-11-11T12:45:30.859Z,63.95
2018-11-11T12:46:30.873Z,63.95
2018-11-11T12:47:30.806Z,63.64
2018-11-11T12:48:30.824Z,64.65
2018-11-11T12:49:30.791Z,63.81
2018-11-11T12:50:30.858Z,63.04
2018-11-11T12:51:30.767Z,64.15
2018-11-11T12:52:30.758Z,63.64